DLH9C LSZH-EDDF
Flight info
| Callsign | DLH9C |
|---|---|
| Flight time | 0h 36m |
| Altitude | 20000 |
| Route | DEGES Z1 SUDEN T164 KOVAN T163 SPESA SPESA5B |
| Aircraft | A319/M-SDE2E3FGIJ1LORWXYZ/HB1 |
Departure
| Time | 2026-05-04 14:32 |
|---|---|
| Airport | Zürich Airport (LSZH) |
Arrival
| Time | 2026-05-04 15:08 |
|---|---|
| Airport | Frankfurt Main Airport (EDDF) |
| Time | Latitude | Longitude | Altitude | Speed | Heading |
|---|---|---|---|---|---|
| 2026-05-04 14:12 | 47.45404 | 8.56118 | 1397 ft | 0 kts | 186° |
| 2026-05-04 14:20 | 47.45421 | 8.56120 | 1406 ft | 2 kts | 187° |
| 2026-05-04 14:20 | 47.45437 | 8.56122 | 1399 ft | 2 kts | 186° |
| 2026-05-04 14:20 | 47.45453 | 8.56125 | 1405 ft | 2 kts | 189° |
| 2026-05-04 14:21 | 47.45480 | 8.56144 | 1403 ft | 0 kts | 277° |
| 2026-05-04 14:22 | 47.45481 | 8.56134 | 1402 ft | 6 kts | 276° |
| 2026-05-04 14:22 | 47.45490 | 8.56017 | 1401 ft | 13 kts | 277° |
| 2026-05-04 14:23 | 47.45509 | 8.55725 | 1403 ft | 15 kts | 276° |
| 2026-05-04 14:23 | 47.45520 | 8.55563 | 1401 ft | 16 kts | 276° |
| 2026-05-04 14:23 | 47.45540 | 8.55406 | 1400 ft | 15 kts | 304° |
| 2026-05-04 14:24 | 47.45631 | 8.55333 | 1403 ft | 15 kts | 339° |
| 2026-05-04 14:24 | 47.45736 | 8.55280 | 1402 ft | 17 kts | 337° |
| 2026-05-04 14:24 | 47.45849 | 8.55202 | 1397 ft | 18 kts | 335° |
| 2026-05-04 14:24 | 47.45972 | 8.55117 | 1397 ft | 21 kts | 335° |
| 2026-05-04 14:25 | 47.46101 | 8.55029 | 1396 ft | 20 kts | 335° |
| 2026-05-04 14:25 | 47.46360 | 8.54850 | 1398 ft | 21 kts | 335° |
| 2026-05-04 14:25 | 47.46500 | 8.54754 | 1401 ft | 24 kts | 335° |
| 2026-05-04 14:26 | 47.46656 | 8.54646 | 1396 ft | 26 kts | 335° |
| 2026-05-04 14:26 | 47.46787 | 8.54511 | 1395 ft | 22 kts | 306° |
| 2026-05-04 14:26 | 47.46892 | 8.54353 | 1404 ft | 21 kts | 335° |
| 2026-05-04 14:26 | 47.47021 | 8.54265 | 1400 ft | 20 kts | 334° |
| 2026-05-04 14:27 | 47.47147 | 8.54178 | 1401 ft | 19 kts | 335° |
| 2026-05-04 14:27 | 47.47272 | 8.54092 | 1402 ft | 21 kts | 335° |
| 2026-05-04 14:27 | 47.47409 | 8.53998 | 1401 ft | 22 kts | 335° |
| 2026-05-04 14:27 | 47.47551 | 8.53901 | 1395 ft | 20 kts | 335° |
| 2026-05-04 14:28 | 47.47611 | 8.53797 | 1401 ft | 9 kts | 281° |
| 2026-05-04 14:28 | 47.47611 | 8.53781 | 1398 ft | 0 kts | 269° |
| 2026-05-04 14:28 | 47.47611 | 8.53776 | 1398 ft | 2 kts | 269° |
| 2026-05-04 14:29 | 47.47549 | 8.53623 | 1405 ft | 14 kts | 207° |
| 2026-05-04 14:29 | 47.47479 | 8.53658 | 1397 ft | 0 kts | 156° |
| 2026-05-04 14:30 | 47.47470 | 8.53663 | 1397 ft | 6 kts | 156° |
| 2026-05-04 14:31 | 47.47203 | 8.53847 | 1395 ft | 83 kts | 155° |
| 2026-05-04 14:31 | 47.45441 | 8.55065 | 1859 ft | 161 kts | 154° |
| 2026-05-04 14:32 | 47.43395 | 8.56722 | 3024 ft | 191 kts | 130° |
| 2026-05-04 14:32 | 47.43012 | 8.58679 | 3462 ft | 216 kts | 83° |
| 2026-05-04 14:32 | 47.43625 | 8.60788 | 4105 ft | 229 kts | 56° |
| 2026-05-04 14:32 | 47.44566 | 8.62673 | 5195 ft | 227 kts | 52° |
| 2026-05-04 14:33 | 47.45534 | 8.64547 | 6105 ft | 232 kts | 61° |
| 2026-05-04 14:33 | 47.46111 | 8.66812 | 6749 ft | 245 kts | 84° |
| 2026-05-04 14:33 | 47.46376 | 8.69426 | 7234 ft | 271 kts | 75° |
| 2026-05-04 14:33 | 47.47455 | 8.71776 | 7943 ft | 288 kts | 40° |
| 2026-05-04 14:34 | 47.49109 | 8.73486 | 8928 ft | 292 kts | 35° |
| 2026-05-04 14:34 | 47.50794 | 8.75193 | 9936 ft | 296 kts | 36° |
| 2026-05-04 14:34 | 47.52526 | 8.76981 | 10517 ft | 315 kts | 36° |
| 2026-05-04 14:34 | 47.54346 | 8.78891 | 11056 ft | 331 kts | 36° |
| 2026-05-04 14:35 | 47.56243 | 8.80899 | 11838 ft | 339 kts | 36° |
| 2026-05-04 14:35 | 47.58174 | 8.82950 | 12690 ft | 344 kts | 36° |
| 2026-05-04 14:35 | 47.60224 | 8.84809 | 13524 ft | 349 kts | 22° |
| 2026-05-04 14:35 | 47.62560 | 8.85890 | 14303 ft | 354 kts | 14° |
| 2026-05-04 14:36 | 47.64947 | 8.86854 | 15029 ft | 358 kts | 14° |
| 2026-05-04 14:36 | 47.67373 | 8.87813 | 15742 ft | 364 kts | 13° |
| 2026-05-04 14:36 | 47.69839 | 8.88778 | 16444 ft | 369 kts | 13° |
| 2026-05-04 14:36 | 47.72343 | 8.89757 | 17124 ft | 375 kts | 13° |
| 2026-05-04 14:37 | 47.74884 | 8.90751 | 17835 ft | 380 kts | 14° |
| 2026-05-04 14:37 | 47.77456 | 8.91764 | 18497 ft | 385 kts | 14° |
| 2026-05-04 14:37 | 47.80061 | 8.92800 | 19118 ft | 389 kts | 14° |
| 2026-05-04 14:37 | 47.82693 | 8.93850 | 19695 ft | 394 kts | 14° |
| 2026-05-04 14:38 | 47.85345 | 8.94913 | 19912 ft | 395 kts | 14° |
| 2026-05-04 14:38 | 47.88066 | 8.95895 | 20409 ft | 399 kts | 7° |
| 2026-05-04 14:38 | 47.90787 | 8.96455 | 21063 ft | 402 kts | 6° |
| 2026-05-04 14:38 | 47.93573 | 8.96992 | 21700 ft | 406 kts | 5° |
| 2026-05-04 14:39 | 47.96389 | 8.97523 | 22320 ft | 410 kts | 5° |
| 2026-05-04 14:39 | 47.99234 | 8.98050 | 22934 ft | 414 kts | 5° |
| 2026-05-04 14:39 | 48.02102 | 8.98581 | 23552 ft | 418 kts | 5° |
| 2026-05-04 14:40 | 48.07903 | 8.99677 | 23948 ft | 417 kts | 5° |
| 2026-05-04 14:40 | 48.10770 | 9.00230 | 23975 ft | 422 kts | 5° |
| 2026-05-04 14:40 | 48.13755 | 9.00801 | 23972 ft | 441 kts | 5° |
| 2026-05-04 14:40 | 48.16826 | 9.01386 | 23970 ft | 449 kts | 5° |
| 2026-05-04 14:41 | 48.19938 | 9.01980 | 23967 ft | 452 kts | 5° |
| 2026-05-04 14:41 | 48.23066 | 9.02575 | 23966 ft | 452 kts | 5° |
| 2026-05-04 14:41 | 48.29315 | 9.03760 | 23981 ft | 453 kts | 5° |
| 2026-05-04 14:42 | 48.35541 | 9.04971 | 23969 ft | 450 kts | 6° |
| 2026-05-04 14:42 | 48.38648 | 9.05575 | 23969 ft | 450 kts | 6° |
| 2026-05-04 14:42 | 48.41747 | 9.06174 | 23969 ft | 450 kts | 5° |
| 2026-05-04 14:43 | 48.44851 | 9.06770 | 23969 ft | 450 kts | 6° |
| 2026-05-04 14:43 | 48.47963 | 9.07370 | 23968 ft | 450 kts | 5° |
| 2026-05-04 14:43 | 48.51064 | 9.07964 | 23967 ft | 450 kts | 6° |
| 2026-05-04 14:43 | 48.54168 | 9.08563 | 23973 ft | 450 kts | 6° |
| 2026-05-04 14:44 | 48.57230 | 9.09159 | 23972 ft | 450 kts | 6° |
| 2026-05-04 14:44 | 48.60338 | 9.09761 | 23973 ft | 449 kts | 6° |
| 2026-05-04 14:44 | 48.63441 | 9.10363 | 23972 ft | 449 kts | 6° |
| 2026-05-04 14:44 | 48.66542 | 9.10966 | 23970 ft | 449 kts | 6° |
| 2026-05-04 14:45 | 48.69640 | 9.11572 | 23969 ft | 449 kts | 6° |
| 2026-05-04 14:45 | 48.72740 | 9.12178 | 23970 ft | 449 kts | 5° |
| 2026-05-04 14:45 | 48.74832 | 9.12585 | 23970 ft | 449 kts | 5° |
| 2026-05-04 14:45 | 48.77926 | 9.13185 | 23969 ft | 448 kts | 5° |
| 2026-05-04 14:46 | 48.81029 | 9.13790 | 23967 ft | 448 kts | 5° |
| 2026-05-04 14:46 | 48.84122 | 9.14398 | 23967 ft | 448 kts | 5° |
| 2026-05-04 14:46 | 48.87218 | 9.15010 | 23966 ft | 448 kts | 5° |
| 2026-05-04 14:46 | 48.90312 | 9.15628 | 23966 ft | 448 kts | 6° |
| 2026-05-04 14:47 | 48.93359 | 9.16235 | 23964 ft | 448 kts | 5° |
| 2026-05-04 14:47 | 48.96490 | 9.16857 | 23967 ft | 448 kts | 5° |
| 2026-05-04 14:47 | 48.99545 | 9.17462 | 23805 ft | 449 kts | 5° |
| 2026-05-04 14:47 | 49.02618 | 9.18061 | 23442 ft | 440 kts | 5° |
| 2026-05-04 14:48 | 49.05626 | 9.18650 | 23031 ft | 430 kts | 5° |
| 2026-05-04 14:48 | 49.08561 | 9.19235 | 22630 ft | 422 kts | 5° |
| 2026-05-04 14:48 | 49.11451 | 9.19811 | 22229 ft | 416 kts | 5° |
| 2026-05-04 14:48 | 49.14300 | 9.20371 | 21838 ft | 409 kts | 5° |
| 2026-05-04 14:49 | 49.17110 | 9.20919 | 21452 ft | 403 kts | 5° |
| 2026-05-04 14:49 | 49.19875 | 9.21458 | 21069 ft | 397 kts | 5° |
| 2026-05-04 14:49 | 49.22599 | 9.21986 | 20691 ft | 391 kts | 5° |
| 2026-05-04 14:49 | 49.25279 | 9.22518 | 20320 ft | 386 kts | 5° |
| 2026-05-04 14:50 | 49.27924 | 9.23056 | 19956 ft | 381 kts | 5° |
| 2026-05-04 14:50 | 49.30531 | 9.23593 | 19594 ft | 376 kts | 5° |
| 2026-05-04 14:50 | 49.33111 | 9.24122 | 19219 ft | 372 kts | 5° |
| 2026-05-04 14:50 | 49.35674 | 9.24634 | 18745 ft | 371 kts | 5° |
| 2026-05-04 14:51 | 49.38234 | 9.25136 | 18286 ft | 371 kts | 5° |
| 2026-05-04 14:51 | 49.40794 | 9.25631 | 17743 ft | 370 kts | 5° |
| 2026-05-04 14:51 | 49.43343 | 9.26125 | 17224 ft | 369 kts | 5° |
| 2026-05-04 14:51 | 49.45888 | 9.26626 | 16705 ft | 368 kts | 5° |
| 2026-05-04 14:52 | 49.48428 | 9.27142 | 16195 ft | 368 kts | 6° |
| 2026-05-04 14:52 | 49.50960 | 9.27666 | 15695 ft | 367 kts | 6° |
| 2026-05-04 14:52 | 49.53453 | 9.28180 | 15208 ft | 366 kts | 6° |
| 2026-05-04 14:52 | 49.55974 | 9.28694 | 14721 ft | 365 kts | 6° |
| 2026-05-04 14:53 | 49.58485 | 9.29196 | 14239 ft | 363 kts | 6° |
| 2026-05-04 14:53 | 49.60991 | 9.29699 | 13766 ft | 362 kts | 7° |
| 2026-05-04 14:53 | 49.63481 | 9.30207 | 13232 ft | 360 kts | 7° |
| 2026-05-04 14:53 | 49.65951 | 9.30709 | 12706 ft | 357 kts | 7° |
| 2026-05-04 14:54 | 49.68415 | 9.31212 | 12193 ft | 355 kts | 7° |
| 2026-05-04 14:54 | 49.70860 | 9.31708 | 11682 ft | 353 kts | 7° |
| 2026-05-04 14:54 | 49.73283 | 9.32196 | 11185 ft | 351 kts | 7° |
| 2026-05-04 14:54 | 49.75701 | 9.32685 | 10691 ft | 349 kts | 7° |
| 2026-05-04 14:55 | 49.78101 | 9.33167 | 10205 ft | 347 kts | 7° |
| 2026-05-04 14:55 | 49.80466 | 9.33646 | 9702 ft | 338 kts | 7° |
| 2026-05-04 14:55 | 49.82765 | 9.33865 | 9172 ft | 326 kts | 353° |
| 2026-05-04 14:55 | 49.84876 | 9.32888 | 8652 ft | 311 kts | 329° |
| 2026-05-04 14:56 | 49.86509 | 9.30839 | 8144 ft | 297 kts | 307° |
| 2026-05-04 14:56 | 49.87505 | 9.28137 | 7641 ft | 284 kts | 286° |
| 2026-05-04 14:56 | 49.88065 | 9.25233 | 7151 ft | 281 kts | 284° |
| 2026-05-04 14:56 | 49.88610 | 9.22355 | 6982 ft | 276 kts | 284° |
| 2026-05-04 14:57 | 49.89153 | 9.19504 | 6986 ft | 274 kts | 284° |
| 2026-05-04 14:57 | 49.89678 | 9.16765 | 6982 ft | 256 kts | 283° |
| 2026-05-04 14:57 | 49.90174 | 9.14189 | 6983 ft | 245 kts | 283° |
| 2026-05-04 14:57 | 49.90656 | 9.11670 | 6986 ft | 243 kts | 284° |
| 2026-05-04 14:58 | 49.91133 | 9.09149 | 6989 ft | 244 kts | 282° |
| 2026-05-04 14:58 | 49.91608 | 9.06618 | 6981 ft | 245 kts | 282° |
| 2026-05-04 14:58 | 49.92087 | 9.04073 | 6814 ft | 245 kts | 283° |
| 2026-05-04 14:58 | 49.92560 | 9.01570 | 6623 ft | 245 kts | 283° |
| 2026-05-04 14:59 | 49.93039 | 8.99048 | 6427 ft | 243 kts | 283° |
| 2026-05-04 14:59 | 49.93824 | 8.96723 | 6221 ft | 248 kts | 310° |
| 2026-05-04 14:59 | 49.97000 | 8.95188 | 5660 ft | 251 kts | 14° |
| 2026-05-04 15:00 | 49.98562 | 8.96328 | 5383 ft | 249 kts | 32° |
| 2026-05-04 15:00 | 50.00013 | 8.97800 | 5109 ft | 249 kts | 33° |
| 2026-05-04 15:00 | 50.01442 | 8.99311 | 4829 ft | 246 kts | 28° |
| 2026-05-04 15:01 | 50.04642 | 8.99681 | 4241 ft | 233 kts | 346° |
| 2026-05-04 15:01 | 50.06209 | 8.99130 | 4012 ft | 228 kts | 344° |
| 2026-05-04 15:01 | 50.07753 | 8.98585 | 4002 ft | 229 kts | 345° |
| 2026-05-04 15:01 | 50.09302 | 8.97936 | 4012 ft | 231 kts | 334° |
| 2026-05-04 15:02 | 50.10558 | 8.96445 | 4004 ft | 228 kts | 306° |
| 2026-05-04 15:02 | 50.11316 | 8.94320 | 4012 ft | 224 kts | 287° |
| 2026-05-04 15:02 | 50.11576 | 8.91940 | 4017 ft | 225 kts | 269° |
| 2026-05-04 15:02 | 50.11313 | 8.89561 | 4010 ft | 220 kts | 251° |
| 2026-05-04 15:03 | 50.10803 | 8.87407 | 3993 ft | 203 kts | 250° |
| 2026-05-04 15:03 | 50.10333 | 8.85406 | 3882 ft | 191 kts | 250° |
| 2026-05-04 15:03 | 50.09894 | 8.83539 | 3673 ft | 177 kts | 251° |
| 2026-05-04 15:03 | 50.09481 | 8.81782 | 3454 ft | 170 kts | 250° |
| 2026-05-04 15:04 | 50.09078 | 8.80074 | 3227 ft | 166 kts | 251° |
| 2026-05-04 15:04 | 50.08677 | 8.78373 | 3010 ft | 169 kts | 252° |
| 2026-05-04 15:04 | 50.08272 | 8.76657 | 2780 ft | 168 kts | 252° |
| 2026-05-04 15:04 | 50.07865 | 8.74936 | 2555 ft | 168 kts | 251° |
| 2026-05-04 15:05 | 50.07463 | 8.73234 | 2330 ft | 166 kts | 251° |
| 2026-05-04 15:05 | 50.07123 | 8.71539 | 2110 ft | 170 kts | 259° |
| 2026-05-04 15:05 | 50.06933 | 8.69762 | 1877 ft | 160 kts | 263° |
| 2026-05-04 15:05 | 50.06740 | 8.68143 | 1617 ft | 147 kts | 254° |
| 2026-05-04 15:06 | 50.06410 | 8.66682 | 1454 ft | 138 kts | 251° |
| 2026-05-04 15:06 | 50.06072 | 8.65322 | 1291 ft | 133 kts | 250° |
| 2026-05-04 15:06 | 50.05766 | 8.63988 | 1128 ft | 131 kts | 250° |
| 2026-05-04 15:07 | 50.05140 | 8.61330 | 792 ft | 132 kts | 251° |
| 2026-05-04 15:07 | 50.04822 | 8.60002 | 602 ft | 130 kts | 248° |
| 2026-05-04 15:07 | 50.04515 | 8.58709 | 439 ft | 126 kts | 249° |
| 2026-05-04 15:07 | 50.04222 | 8.57485 | 367 ft | 110 kts | 250° |
| 2026-05-04 15:08 | 50.04000 | 8.56552 | 357 ft | 68 kts | 250° |
| 2026-05-04 15:08 | 50.03893 | 8.56078 | 360 ft | 34 kts | 258° |
| 2026-05-04 15:08 | 50.03895 | 8.55793 | 358 ft | 22 kts | 278° |
| 2026-05-04 15:08 | 50.03903 | 8.55700 | 348 ft | 0 kts | 279° |
| 2026-05-04 15:10 | 50.03903 | 8.55699 | 349 ft | 1 kts | 279° |
| 2026-05-04 15:10 | 50.03914 | 8.55653 | 354 ft | 9 kts | 301° |
| 2026-05-04 15:10 | 50.04002 | 8.55754 | 355 ft | 11 kts | 70° |
| 2026-05-04 15:11 | 50.04028 | 8.55863 | 357 ft | 11 kts | 69° |
| 2026-05-04 15:11 | 50.04058 | 8.55984 | 355 ft | 14 kts | 70° |
| 2026-05-04 15:11 | 50.04095 | 8.56145 | 354 ft | 17 kts | 70° |
| 2026-05-04 15:11 | 50.04156 | 8.56281 | 353 ft | 15 kts | 8° |
| 2026-05-04 15:12 | 50.04252 | 8.56234 | 359 ft | 13 kts | 340° |
| 2026-05-04 15:12 | 50.04289 | 8.56131 | 355 ft | 12 kts | 269° |
| 2026-05-04 15:12 | 50.04351 | 8.56051 | 359 ft | 13 kts | 339° |
| 2026-05-04 15:12 | 50.04433 | 8.56046 | 360 ft | 13 kts | 45° |
| 2026-05-04 15:13 | 50.04468 | 8.56179 | 357 ft | 14 kts | 69° |
| 2026-05-04 15:13 | 50.04502 | 8.56325 | 358 ft | 15 kts | 69° |
| 2026-05-04 15:13 | 50.04557 | 8.56445 | 356 ft | 12 kts | 27° |
| 2026-05-04 15:13 | 50.04598 | 8.56474 | 356 ft | 6 kts | 24° |
| 2026-05-04 15:14 | 50.04637 | 8.56502 | 358 ft | 7 kts | 24° |
| 2026-05-04 15:14 | 50.04670 | 8.56546 | 359 ft | 7 kts | 77° |
| 2026-05-04 15:14 | 50.04651 | 8.56615 | 360 ft | 8 kts | 114° |
| 2026-05-04 15:14 | 50.04636 | 8.56669 | 362 ft | 0 kts | 114° |